Time;durP1;ratioP1;P1;durP2;ratioP2;P2;SDS_P1;SDS_P2;PMS_P1;PMS_P2;Temp;Humidity;BMP_temperature;BMP_pressure;BME280_temperature;BME280_humidity;BME280_pressure;Samples;Min_cycle;Max_cycle;Signal;HPM_P1;HPM_P2
2023/05/17 00:01:04;;;;;;;28.38;5.47;;;;;;;;;;5041367;28;20037;-70
2023/05/17 00:03:32;;;;;;;21.48;4.97;;;;;;;;;;5010918;28;20064;-70
2023/05/17 00:05:57;;;;;;;21.60;5.40;;;;;;;;;;5018259;28;20041;-74
2023/05/17 00:08:23;;;;;;;18.00;4.88;;;;;;;;;;5054637;28;20075;-72
2023/05/17 00:10:50;;;;;;;22.88;5.13;;;;;;;;;;5023632;28;20177;-72
2023/05/17 00:13:16;;;;;;;24.40;5.32;;;;;;;;;;5032356;28;20041;-76
2023/05/17 00:15:41;;;;;;;29.10;5.65;;;;;;;;;;5017062;28;20034;-72
2023/05/17 00:18:06;;;;;;;25.13;5.22;;;;;;;;;;5024737;28;20037;-73
2023/05/17 00:20:32;;;;;;;22.20;5.53;;;;;;;;;;5030331;28;20778;-72
2023/05/17 00:22:57;;;;;;;23.88;5.18;;;;;;;;;;5056671;28;20132;-75
2023/05/17 00:25:22;;;;;;;17.55;4.47;;;;;;;;;;5024115;28;20041;-73
2023/05/17 00:27:48;;;;;;;23.52;5.07;;;;;;;;;;5058415;28;20102;-74
2023/05/17 00:30:13;;;;;;;18.25;5.40;;;;;;;;;;5059307;28;20034;-73
2023/05/17 00:32:38;;;;;;;21.63;5.10;;;;;;;;;;5054068;28;20042;-72
2023/05/17 00:35:04;;;;;;;26.17;5.20;;;;;;;;;;5057285;28;20048;-73
2023/05/17 00:37:31;;;;;;;18.33;4.97;;;;;;;;;;5025889;28;20456;-74
2023/05/17 00:39:57;;;;;;;20.63;5.18;;;;;;;;;;5035811;28;20045;-73
2023/05/17 00:42:22;;;;;;;20.90;4.95;;;;;;;;;;5026437;28;20041;-72
2023/05/17 00:44:47;;;;;;;20.25;4.28;;;;;;;;;;5029434;28;20064;-74
2023/05/17 00:47:12;;;;;;;21.85;4.80;;;;;;;;;;5026183;28;20074;-72
2023/05/17 00:49:38;;;;;;;21.02;4.63;;;;;;;;;;5034313;28;20394;-74
2023/05/17 00:52:05;;;;;;;23.63;4.82;;;;;;;;;;5024827;28;20041;-73
2023/05/17 00:54:31;;;;;;;20.73;5.13;;;;;;;;;;5040407;28;20034;-76
2023/05/17 00:56:58;;;;;;;16.38;4.47;;;;;;;;;;5052933;28;20029;-73
2023/05/17 00:59:26;;;;;;;18.08;4.38;;;;;;;;;;5003416;28;20149;-74
2023/05/17 01:01:52;;;;;;;23.58;4.88;;;;;;;;;;5034051;28;20060;-73
2023/05/17 01:04:22;;;;;;;25.10;4.90;;;;;;;;;;5009851;28;20034;-72
2023/05/17 01:06:50;;;;;;;17.35;4.53;;;;;;;;;;5001319;28;20129;-74
2023/05/17 01:09:16;;;;;;;23.70;4.63;;;;;;;;;;5000671;28;20084;-73
2023/05/17 01:11:50;;;;;;;17.95;4.78;;;;;;;;;;5007040;28;20722;-74
2023/05/17 01:14:24;;;;;;;17.05;4.30;;;;;;;;;;4996093;28;20429;-73
2023/05/17 01:16:50;;;;;;;25.88;4.72;;;;;;;;;;5007999;28;20168;-73
2023/05/17 01:19:37;;;;;;;21.67;4.30;;;;;;;;;;5009706;28;20125;-74
2023/05/17 01:22:14;;;;;;;16.95;4.65;;;;;;;;;;5019750;28;20045;-75
2023/05/17 01:25:00;;;;;;;19.02;4.20;;;;;;;;;;5029338;28;20041;-73
2023/05/17 01:27:27;;;;;;;23.13;4.88;;;;;;;;;;5027561;28;20172;-74
2023/05/17 01:29:54;;;;;;;18.98;4.32;;;;;;;;;;5026773;28;20038;-74
2023/05/17 01:32:20;;;;;;;23.88;4.85;;;;;;;;;;5031612;28;20068;-73
2023/05/17 01:34:45;;;;;;;27.48;4.80;;;;;;;;;;5025595;28;20022;-73
2023/05/17 01:37:10;;;;;;;21.95;3.95;;;;;;;;;;5026520;28;20037;-72
2023/05/17 01:39:35;;;;;;;18.38;3.40;;;;;;;;;;5025656;28;20033;-73
2023/05/17 01:42:11;;;;;;;19.35;3.55;;;;;;;;;;5047390;28;20044;-72
2023/05/17 01:44:42;;;;;;;17.80;3.35;;;;;;;;;;5005986;28;20518;-72
2023/05/17 01:47:25;;;;;;;20.70;3.80;;;;;;;;;;5004649;28;20025;-72
2023/05/17 01:49:53;;;;;;;22.95;3.60;;;;;;;;;;5012658;28;20121;-73
2023/05/17 01:52:24;;;;;;;23.92;3.88;;;;;;;;;;5008145;28;20127;-72
2023/05/17 01:55:02;;;;;;;18.58;3.28;;;;;;;;;;5034907;28;20034;-73
2023/05/17 01:57:31;;;;;;;25.55;3.95;;;;;;;;;;4999967;28;20044;-74
2023/05/17 01:59:58;;;;;;;18.55;4.47;;;;;;;;;;5001267;28;20107;-73
2023/05/17 02:02:23;;;;;;;22.98;4.10;;;;;;;;;;5004275;28;20042;-73
2023/05/17 02:04:50;;;;;;;27.23;4.43;;;;;;;;;;5034649;28;20091;-71
2023/05/17 02:07:17;;;;;;;16.75;3.50;;;;;;;;;;5001151;28;20042;-72
2023/05/17 02:09:45;;;;;;;23.17;3.60;;;;;;;;;;5012652;28;20033;-72
2023/05/17 02:12:10;;;;;;;24.30;4.68;;;;;;;;;;5003578;28;20045;-73
2023/05/17 02:14:35;;;;;;;27.38;4.90;;;;;;;;;;5008928;28;20030;-73
2023/05/17 02:17:01;;;;;;;21.20;3.80;;;;;;;;;;5007544;28;20038;-71
2023/05/17 02:19:26;;;;;;;20.83;3.17;;;;;;;;;;5003795;28;20589;-72
2023/05/17 02:21:51;;;;;;;25.38;4.07;;;;;;;;;;5042288;28;23328;-72
2023/05/17 02:24:19;;;;;;;16.60;3.63;;;;;;;;;;5009133;28;20199;-72
2023/05/17 02:26:44;;;;;;;18.95;3.53;;;;;;;;;;5006142;28;20149;-72
2023/05/17 02:29:10;;;;;;;23.02;4.10;;;;;;;;;;4999404;28;20037;-71
2023/05/17 02:31:35;;;;;;;21.27;3.45;;;;;;;;;;5004092;28;20100;-72
2023/05/17 02:34:00;;;;;;;25.85;3.88;;;;;;;;;;5004433;28;20033;-72
2023/05/17 02:36:28;;;;;;;15.10;3.63;;;;;;;;;;5038176;28;20029;-73
2023/05/17 02:38:53;;;;;;;20.73;3.60;;;;;;;;;;5026551;28;20036;-72
2023/05/17 02:41:18;;;;;;;19.10;2.95;;;;;;;;;;5010657;28;20038;-73
2023/05/17 02:43:46;;;;;;;19.83;3.58;;;;;;;;;;5013352;28;20030;-71
2023/05/17 02:46:11;;;;;;;20.85;3.33;;;;;;;;;;5029231;28;25001;-71
2023/05/17 02:48:36;;;;;;;19.65;3.63;;;;;;;;;;5005911;28;20041;-74
2023/05/17 02:51:02;;;;;;;25.45;3.72;;;;;;;;;;5011411;28;20486;-72
2023/05/17 02:53:27;;;;;;;20.05;3.13;;;;;;;;;;5041926;28;20034;-72
2023/05/17 02:55:56;;;;;;;26.45;3.38;;;;;;;;;;5008187;28;20114;-73
2023/05/17 02:58:22;;;;;;;18.85;3.38;;;;;;;;;;5038580;28;20049;-71
2023/05/17 03:00:47;;;;;;;20.98;3.08;;;;;;;;;;5008921;28;20042;-73
2023/05/17 03:03:15;;;;;;;19.00;2.97;;;;;;;;;;5010825;28;20058;-73
2023/05/17 03:05:40;;;;;;;17.25;3.10;;;;;;;;;;5007554;28;20062;-73
2023/05/17 03:08:05;;;;;;;21.77;3.67;;;;;;;;;;5011484;28;20042;-74
2023/05/17 03:10:31;;;;;;;17.20;2.78;;;;;;;;;;5019001;28;20676;-74
2023/05/17 03:12:56;;;;;;;27.77;3.53;;;;;;;;;;5021148;28;20080;-74
2023/05/17 03:15:22;;;;;;;21.33;3.13;;;;;;;;;;5010958;28;20034;-74
2023/05/17 03:17:47;;;;;;;19.63;3.72;;;;;;;;;;5009845;28;20147;-73
2023/05/17 03:20:13;;;;;;;15.82;2.85;;;;;;;;;;5010904;28;20123;-73
2023/05/17 03:22:38;;;;;;;25.75;3.00;;;;;;;;;;5010719;28;20033;-73
2023/05/17 03:25:06;;;;;;;18.88;2.88;;;;;;;;;;5016390;28;20034;-72
2023/05/17 03:27:32;;;;;;;18.90;2.70;;;;;;;;;;5015725;28;20033;-72
2023/05/17 03:29:57;;;;;;;23.67;3.05;;;;;;;;;;5011585;28;22352;-73
2023/05/17 03:32:22;;;;;;;22.20;3.22;;;;;;;;;;5046773;28;20093;-73
2023/05/17 03:34:48;;;;;;;21.10;3.40;;;;;;;;;;5014262;28;20037;-74
2023/05/17 03:37:13;;;;;;;18.38;3.92;;;;;;;;;;5020277;28;20137;-74
2023/05/17 03:39:41;;;;;;;18.98;3.63;;;;;;;;;;5041768;28;20116;-73
2023/05/17 03:42:08;;;;;;;20.70;3.13;;;;;;;;;;5040701;28;20022;-74
2023/05/17 03:44:34;;;;;;;18.98;3.05;;;;;;;;;;5015966;28;20026;-73
2023/05/17 03:46:59;;;;;;;17.77;2.63;;;;;;;;;;5019349;28;20061;-74
2023/05/17 03:49:24;;;;;;;19.30;3.20;;;;;;;;;;5039843;28;20037;-74
2023/05/17 03:51:49;;;;;;;23.63;4.03;;;;;;;;;;5021528;28;20100;-73
2023/05/17 03:54:15;;;;;;;26.45;3.22;;;;;;;;;;5013804;28;20038;-73
2023/05/17 03:56:42;;;;;;;21.35;3.13;;;;;;;;;;5019205;28;20095;-73
2023/05/17 03:59:07;;;;;;;26.05;3.50;;;;;;;;;;5022149;28;20033;-74
2023/05/17 04:01:33;;;;;;;21.60;3.30;;;;;;;;;;5014961;28;20426;-72
2023/05/17 04:04:00;;;;;;;19.75;3.17;;;;;;;;;;5014099;28;20040;-73
2023/05/17 04:06:25;;;;;;;18.25;2.63;;;;;;;;;;5042093;28;20037;-75
2023/05/17 04:08:52;;;;;;;18.98;3.40;;;;;;;;;;5006870;28;20029;-74
2023/05/17 04:11:22;;;;;;;17.77;3.00;;;;;;;;;;5006678;28;20022;-74
2023/05/17 04:13:50;;;;;;;20.88;3.55;;;;;;;;;;5057833;28;20026;-74
2023/05/17 04:16:18;;;;;;;19.27;3.53;;;;;;;;;;5016399;28;20140;-73
2023/05/17 04:18:44;;;;;;;17.90;4.07;;;;;;;;;;5016880;28;20029;-74
2023/05/17 04:21:09;;;;;;;23.02;3.30;;;;;;;;;;5011683;28;20037;-73
2023/05/17 04:23:34;;;;;;;23.92;3.25;;;;;;;;;;5041117;28;20038;-73
2023/05/17 04:26:03;;;;;;;22.17;3.50;;;;;;;;;;5005507;28;20030;-73
2023/05/17 04:28:29;;;;;;;19.55;3.60;;;;;;;;;;5039361;28;20045;-71
2023/05/17 04:30:56;;;;;;;26.77;3.47;;;;;;;;;;5005826;28;20030;-73
2023/05/17 04:33:22;;;;;;;16.80;3.03;;;;;;;;;;5001608;28;20822;-72
2023/05/17 04:35:48;;;;;;;21.30;3.42;;;;;;;;;;4994473;28;20049;-72
2023/05/17 04:38:14;;;;;;;19.67;3.13;;;;;;;;;;5005549;28;20113;-72
2023/05/17 04:40:39;;;;;;;16.40;2.80;;;;;;;;;;5003373;28;20037;-74
2023/05/17 04:43:04;;;;;;;19.40;2.95;;;;;;;;;;5003159;28;20161;-72
2023/05/17 04:45:32;;;;;;;22.90;3.13;;;;;;;;;;5012999;28;20117;-73
2023/05/17 04:47:58;;;;;;;19.05;2.97;;;;;;;;;;5007748;28;20091;-74
2023/05/17 04:50:24;;;;;;;12.85;2.63;;;;;;;;;;5015376;28;20585;-73
2023/05/17 04:52:49;;;;;;;20.35;3.33;;;;;;;;;;5015292;28;20046;-73
2023/05/17 04:55:14;;;;;;;18.52;2.85;;;;;;;;;;5010983;28;20041;-74
2023/05/17 04:57:40;;;;;;;20.77;3.17;;;;;;;;;;5014594;28;20409;-74
2023/05/17 05:00:05;;;;;;;19.90;3.50;;;;;;;;;;5010694;28;20038;-74
2023/05/17 05:02:31;;;;;;;22.75;2.65;;;;;;;;;;5043132;28;20133;-73
2023/05/17 05:04:56;;;;;;;16.42;2.58;;;;;;;;;;5014624;28;20060;-73
2023/05/17 05:07:26;;;;;;;15.77;2.38;;;;;;;;;;5011476;28;20402;-72
2023/05/17 05:09:52;;;;;;;18.13;2.58;;;;;;;;;;5027499;28;20593;-72
2023/05/17 05:12:22;;;;;;;21.25;2.83;;;;;;;;;;5008911;28;20053;-74
2023/05/17 05:14:47;;;;;;;15.90;2.45;;;;;;;;;;5004775;28;20045;-73
2023/05/17 05:17:12;;;;;;;23.60;3.15;;;;;;;;;;4995310;28;20079;-82
2023/05/17 05:19:38;;;;;;;37.50;3.50;;;;;;;;;;4994929;28;20065;-80
2023/05/17 05:22:03;;;;;;;25.52;3.47;;;;;;;;;;4994698;28;20077;-78
2023/05/17 05:24:28;;;;;;;15.73;2.13;;;;;;;;;;4994746;28;20045;-76
2023/05/17 05:26:53;;;;;;;22.75;2.42;;;;;;;;;;5023265;28;20042;-77
2023/05/17 05:29:21;;;;;;;18.85;2.60;;;;;;;;;;4993872;28;20096;-75
2023/05/17 05:31:46;;;;;;;15.30;2.28;;;;;;;;;;4991524;28;20053;-76
2023/05/17 05:34:12;;;;;;;17.75;2.35;;;;;;;;;;4992781;28;20068;-77
2023/05/17 05:36:37;;;;;;;14.48;2.85;;;;;;;;;;4985437;28;20046;-79
2023/05/17 05:39:02;;;;;;;12.63;2.05;;;;;;;;;;5011636;28;20624;-76
2023/05/17 05:41:27;;;;;;;23.38;2.78;;;;;;;;;;4986653;28;20037;-77
2023/05/17 05:43:53;;;;;;;21.15;3.15;;;;;;;;;;4991841;28;20724;-75
2023/05/17 05:46:18;;;;;;;15.10;2.42;;;;;;;;;;4991720;28;20043;-74
2023/05/17 05:48:43;;;;;;;33.85;4.45;;;;;;;;;;5021851;28;20124;-70
2023/05/17 05:51:11;;;;;;;15.15;2.78;;;;;;;;;;5023946;28;20037;-73
2023/05/17 05:53:39;;;;;;;10.98;2.17;;;;;;;;;;5022574;28;20069;-79
2023/05/17 05:56:08;;;;;;;17.92;2.95;;;;;;;;;;4995582;28;20080;-77
2023/05/17 05:58:33;;;;;;;13.20;2.25;;;;;;;;;;4991221;28;20041;-76
2023/05/17 06:00:59;;;;;;;14.73;2.20;;;;;;;;;;4995446;28;20483;-79
2023/05/17 06:03:24;;;;;;;11.48;1.88;;;;;;;;;;4995509;28;20037;-75
2023/05/17 06:05:52;;;;;;;15.50;2.45;;;;;;;;;;4991006;28;20105;-77
2023/05/17 06:08:17;;;;;;;16.95;3.22;;;;;;;;;;5010232;28;20029;-76
2023/05/17 06:10:45;;;;;;;14.20;2.40;;;;;;;;;;5010694;28;20063;-76
2023/05/17 06:13:13;;;;;;;12.80;2.10;;;;;;;;;;5012507;28;20037;-74
2023/05/17 06:15:41;;;;;;;18.45;2.22;;;;;;;;;;5025369;28;20042;-72
2023/05/17 06:18:06;;;;;;;10.70;1.60;;;;;;;;;;4987381;28;20753;-74
2023/05/17 06:20:31;;;;;;;13.40;2.10;;;;;;;;;;4996919;28;20044;-76
2023/05/17 06:22:57;;;;;;;12.52;2.20;;;;;;;;;;4994199;28;20025;-75
2023/05/17 06:25:22;;;;;;;12.80;2.72;;;;;;;;;;5021845;28;20046;-76
2023/05/17 06:27:47;;;;;;;12.93;1.98;;;;;;;;;;4993482;28;20048;-78
2023/05/17 06:30:12;;;;;;;9.75;1.85;;;;;;;;;;5002259;28;20545;-80
2023/05/17 06:32:38;;;;;;;19.88;2.22;;;;;;;;;;5020315;28;20050;-79
2023/05/17 06:35:03;;;;;;;8.63;1.80;;;;;;;;;;4988766;28;20038;-75
2023/05/17 06:37:29;;;;;;;11.73;2.15;;;;;;;;;;4987805;28;20098;-78
2023/05/17 06:40:04;;;;;;;10.15;1.58;;;;;;;;;;5012774;28;20037;-73
2023/05/17 06:42:30;;;;;;;10.73;2.00;;;;;;;;;;5060712;28;20041;-74
2023/05/17 06:44:55;;;;;;;9.25;1.67;;;;;;;;;;5002010;28;20030;-78
2023/05/17 06:47:20;;;;;;;10.93;1.95;;;;;;;;;;5002760;28;20033;-76
2023/05/17 06:49:45;;;;;;;10.20;2.13;;;;;;;;;;5002301;28;20108;-72
2023/05/17 06:52:11;;;;;;;9.02;1.80;;;;;;;;;;5010321;28;20038;-77
2023/05/17 06:54:36;;;;;;;8.73;1.88;;;;;;;;;;5011724;28;20045;-73
2023/05/17 06:57:01;;;;;;;9.20;1.85;;;;;;;;;;5037573;28;20030;-76
2023/05/17 06:59:27;;;;;;;10.18;1.90;;;;;;;;;;5012956;28;20045;-74
2023/05/17 07:01:52;;;;;;;16.85;2.03;;;;;;;;;;5003865;28;20034;-72
2023/05/17 07:04:17;;;;;;;11.45;1.83;;;;;;;;;;5011413;28;20033;-71
2023/05/17 07:06:43;;;;;;;10.60;2.17;;;;;;;;;;5006936;28;20499;-71
2023/05/17 07:09:08;;;;;;;9.57;1.65;;;;;;;;;;5020556;28;20106;-73
2023/05/17 07:11:35;;;;;;;10.13;1.90;;;;;;;;;;5031101;28;20045;-72
2023/05/17 07:14:01;;;;;;;11.40;1.83;;;;;;;;;;5027705;28;20049;-74
2023/05/17 07:16:26;;;;;;;17.23;2.53;;;;;;;;;;5013562;28;20506;-74
2023/05/17 07:18:51;;;;;;;13.93;2.15;;;;;;;;;;5015448;28;20116;-73
2023/05/17 07:21:16;;;;;;;9.60;1.90;;;;;;;;;;5008418;28;20049;-74
2023/05/17 07:23:41;;;;;;;12.27;2.15;;;;;;;;;;5006917;28;20030;-73
2023/05/17 07:26:07;;;;;;;13.75;2.20;;;;;;;;;;5046983;28;20505;-75
2023/05/17 07:28:32;;;;;;;12.07;2.28;;;;;;;;;;5010685;28;20030;-71
2023/05/17 07:30:57;;;;;;;11.73;2.35;;;;;;;;;;5015729;28;20515;-73
2023/05/17 07:33:25;;;;;;;16.85;2.60;;;;;;;;;;5041694;28;20068;-71
2023/05/17 07:35:50;;;;;;;11.95;2.28;;;;;;;;;;5044063;28;20090;-75
2023/05/17 07:38:15;;;;;;;10.68;2.03;;;;;;;;;;5031484;28;20500;-73
2023/05/17 07:40:43;;;;;;;10.55;1.90;;;;;;;;;;5037275;28;20041;-73
2023/05/17 07:43:08;;;;;;;12.45;1.63;;;;;;;;;;5074885;28;20454;-74
2023/05/17 07:45:36;;;;;;;18.02;2.10;;;;;;;;;;5025232;28;20041;-74
2023/05/17 07:48:01;;;;;;;13.20;1.73;;;;;;;;;;5058916;28;20033;-72
2023/05/17 07:50:26;;;;;;;15.27;1.75;;;;;;;;;;5029200;28;20116;-73
2023/05/17 07:52:52;;;;;;;7.72;1.80;;;;;;;;;;5026542;28;20415;-73
2023/05/17 07:55:18;;;;;;;12.20;1.80;;;;;;;;;;5035684;28;20025;-74
2023/05/17 07:57:44;;;;;;;7.68;1.40;;;;;;;;;;5025115;28;20067;-73
2023/05/17 08:00:12;;;;;;;10.35;1.88;;;;;;;;;;5044802;28;20045;-72
2023/05/17 08:02:38;;;;;;;10.60;1.73;;;;;;;;;;5036943;28;20053;-73
2023/05/17 08:05:03;;;;;;;8.73;1.83;;;;;;;;;;5052978;28;20131;-71
2023/05/17 08:07:31;;;;;;;63.95;5.60;;;;;;;;;;5023318;28;20033;-71
2023/05/17 08:09:56;;;;;;;11.43;1.90;;;;;;;;;;5051179;28;20037;-72
2023/05/17 08:12:21;;;;;;;12.38;2.15;;;;;;;;;;5028254;28;20362;-73
2023/05/17 08:14:47;;;;;;;13.35;1.83;;;;;;;;;;5057930;28;20041;-74
2023/05/17 08:17:12;;;;;;;9.80;1.80;;;;;;;;;;5031957;28;20061;-74
2023/05/17 08:19:37;;;;;;;119.82;12.02;;;;;;;;;;5034205;28;20037;-71
2023/05/17 08:22:03;;;;;;;38.33;4.35;;;;;;;;;;5046365;28;20514;-74
2023/05/17 08:24:28;;;;;;;15.35;1.75;;;;;;;;;;5026227;28;20038;-76
2023/05/17 08:26:57;;;;;;;8.55;1.15;;;;;;;;;;5026853;28;20501;-75
2023/05/17 08:29:22;;;;;;;11.63;1.60;;;;;;;;;;5071422;28;20497;-73
2023/05/17 08:31:47;;;;;;;7.88;1.60;;;;;;;;;;5028160;28;20041;-73
2023/05/17 08:34:13;;;;;;;9.93;1.60;;;;;;;;;;5025858;28;20025;-73
2023/05/17 08:36:38;;;;;;;12.27;2.22;;;;;;;;;;5027298;28;20039;-73
2023/05/17 08:39:03;;;;;;;11.73;2.45;;;;;;;;;;5023578;28;20051;-75
2023/05/17 08:41:29;;;;;;;7.78;1.63;;;;;;;;;;5030464;28;20109;-73
2023/05/17 08:43:58;;;;;;;11.43;2.03;;;;;;;;;;5055335;28;20048;-74
2023/05/17 08:46:25;;;;;;;12.32;1.65;;;;;;;;;;5025735;28;20115;-74
2023/05/17 08:48:54;;;;;;;7.38;2.10;;;;;;;;;;5027858;28;20482;-72
2023/05/17 08:51:20;;;;;;;10.88;1.85;;;;;;;;;;5048660;28;20028;-74
2023/05/17 08:53:49;;;;;;;14.52;2.15;;;;;;;;;;5045014;28;20025;-75
2023/05/17 08:56:19;;;;;;;8.40;1.90;;;;;;;;;;5026597;28;20048;-75
2023/05/17 08:58:47;;;;;;;10.23;1.83;;;;;;;;;;5025775;28;20061;-73
2023/05/17 09:01:13;;;;;;;9.93;2.08;;;;;;;;;;5027001;28;20037;-73
2023/05/17 09:03:42;;;;;;;9.43;1.90;;;;;;;;;;5030519;28;20609;-72
2023/05/17 09:06:08;;;;;;;10.07;2.20;;;;;;;;;;5026788;28;20037;-74
2023/05/17 09:08:34;;;;;;;11.07;2.30;;;;;;;;;;5040768;28;20116;-74
2023/05/17 09:10:59;;;;;;;12.27;1.77;;;;;;;;;;5058386;28;20569;-72
2023/05/17 09:13:24;;;;;;;13.23;2.10;;;;;;;;;;5026959;28;20041;-72
2023/05/17 09:15:50;;;;;;;12.20;1.98;;;;;;;;;;5023668;28;20072;-73
2023/05/17 09:18:15;;;;;;;8.60;1.73;;;;;;;;;;5031145;28;20495;-72
2023/05/17 09:20:41;;;;;;;12.85;2.17;;;;;;;;;;5022410;28;20052;-72
2023/05/17 09:23:13;;;;;;;15.07;2.20;;;;;;;;;;5029446;28;20064;-73
2023/05/17 09:25:46;;;;;;;8.88;1.65;;;;;;;;;;5012245;28;20077;-72
2023/05/17 09:28:13;;;;;;;12.13;2.05;;;;;;;;;;5008337;28;20062;-73
2023/05/17 09:30:39;;;;;;;12.50;1.98;;;;;;;;;;5000099;28;20176;-75
2023/05/17 09:33:06;;;;;;;15.75;2.03;;;;;;;;;;4987036;28;20064;-79
2023/05/17 09:35:31;;;;;;;11.73;1.88;;;;;;;;;;4989605;28;20033;-74
2023/05/17 09:38:03;;;;;;;14.60;1.92;;;;;;;;;;5027889;28;20062;-76
2023/05/17 09:40:29;;;;;;;17.80;2.70;;;;;;;;;;5019706;28;20044;-78
2023/05/17 09:42:54;;;;;;;9.57;1.23;;;;;;;;;;5015119;28;20033;-77
2023/05/17 09:45:20;;;;;;;10.40;1.60;;;;;;;;;;5038871;28;20768;-76
2023/05/17 09:47:46;;;;;;;13.70;2.22;;;;;;;;;;5012746;28;20042;-77
2023/05/17 09:50:16;;;;;;;9.65;1.88;;;;;;;;;;5018425;28;20984;-75
2023/05/17 09:52:41;;;;;;;10.70;1.75;;;;;;;;;;5012832;28;20057;-77
2023/05/17 09:55:06;;;;;;;19.17;1.90;;;;;;;;;;5034676;28;20037;-74
2023/05/17 09:57:39;;;;;;;10.38;1.77;;;;;;;;;;5009481;28;20557;-75
2023/05/17 10:00:11;;;;;;;10.30;1.60;;;;;;;;;;5010210;28;20037;-72
2023/05/17 10:02:37;;;;;;;13.50;1.70;;;;;;;;;;5007045;28;20262;-75
2023/05/17 10:05:09;;;;;;;9.18;1.42;;;;;;;;;;5010361;28;20874;-79
2023/05/17 10:07:35;;;;;;;6.65;1.58;;;;;;;;;;5013325;28;20417;-77
2023/05/17 10:10:01;;;;;;;7.75;1.48;;;;;;;;;;5017892;28;20084;-75
2023/05/17 10:12:29;;;;;;;7.65;1.50;;;;;;;;;;5015701;28;20041;-75
2023/05/17 10:14:55;;;;;;;10.70;1.70;;;;;;;;;;5010050;28;20037;-79
2023/05/17 10:17:21;;;;;;;7.40;1.45;;;;;;;;;;5011584;28;20037;-74
2023/05/17 10:19:50;;;;;;;9.65;1.98;;;;;;;;;;5040894;28;20255;-76
2023/05/17 10:22:16;;;;;;;13.55;1.98;;;;;;;;;;5006992;28;20037;-73
2023/05/17 10:24:42;;;;;;;15.82;2.40;;;;;;;;;;5009035;28;20126;-81
2023/05/17 10:27:08;;;;;;;12.50;2.35;;;;;;;;;;5010882;28;21540;-76
2023/05/17 10:29:33;;;;;;;13.07;1.88;;;;;;;;;;5045348;28;20037;-78
2023/05/17 10:32:02;;;;;;;17.27;2.00;;;;;;;;;;5014187;28;20064;-78
2023/05/17 10:34:27;;;;;;;15.85;2.42;;;;;;;;;;5013051;28;20044;-76
2023/05/17 10:36:53;;;;;;;11.48;2.20;;;;;;;;;;5032455;28;20052;-79
2023/05/17 10:39:20;;;;;;;12.82;2.15;;;;;;;;;;5012138;28;20068;-76
2023/05/17 10:41:47;;;;;;;12.60;2.22;;;;;;;;;;5026370;28;20093;-78
2023/05/17 10:44:16;;;;;;;13.00;2.50;;;;;;;;;;5027876;28;20803;-74
2023/05/17 10:46:50;;;;;;;14.98;2.47;;;;;;;;;;5014604;28;20140;-78
2023/05/17 10:49:16;;;;;;;15.90;2.20;;;;;;;;;;5009523;28;20034;-78
2023/05/17 10:51:44;;;;;;;17.45;2.28;;;;;;;;;;5010318;28;20156;-80
2023/05/17 10:54:10;;;;;;;11.02;1.90;;;;;;;;;;5006087;28;20142;-78
2023/05/17 10:56:39;;;;;;;12.43;2.33;;;;;;;;;;5039612;28;22385;-72
2023/05/17 10:59:13;;;;;;;17.05;2.20;;;;;;;;;;5009229;28;20033;-78
2023/05/17 11:01:52;;;;;;;10.80;2.00;;;;;;;;;;5010113;28;20033;-81
2023/05/17 11:04:24;;;;;;;15.77;2.13;;;;;;;;;;5008433;28;20037;-76
2023/05/17 11:06:50;;;;;;;14.18;2.10;;;;;;;;;;5009486;28;20037;-75
2023/05/17 11:09:17;;;;;;;10.82;1.75;;;;;;;;;;5010393;28;20048;-79
2023/05/17 11:12:01;;;;;;;15.18;2.42;;;;;;;;;;5042541;28;21089;-77
2023/05/17 11:14:29;;;;;;;12.18;1.98;;;;;;;;;;5011583;28;20040;-78
2023/05/17 11:16:55;;;;;;;14.57;2.35;;;;;;;;;;5007217;28;20033;-78
2023/05/17 11:19:20;;;;;;;12.07;2.33;;;;;;;;;;5005100;28;20095;-77
2023/05/17 11:21:48;;;;;;;14.85;2.20;;;;;;;;;;5038643;28;20159;-74
2023/05/17 11:24:15;;;;;;;12.02;2.33;;;;;;;;;;5003948;28;21233;-75
2023/05/17 11:26:41;;;;;;;10.38;2.05;;;;;;;;;;5005581;28;20068;-80
2023/05/17 11:29:07;;;;;;;11.60;2.22;;;;;;;;;;5009360;28;20096;-73
2023/05/17 11:31:36;;;;;;;9.15;1.80;;;;;;;;;;5010894;28;20117;-79
2023/05/17 11:34:02;;;;;;;9.18;1.70;;;;;;;;;;5041277;28;20034;-79
2023/05/17 11:36:27;;;;;;;8.02;2.00;;;;;;;;;;5011217;28;22158;-78
2023/05/17 11:39:09;;;;;;;12.82;2.20;;;;;;;;;;5012725;28;20026;-76
2023/05/17 11:41:36;;;;;;;14.55;2.30;;;;;;;;;;5010960;28;20449;-77
2023/05/17 11:44:02;;;;;;;11.77;2.33;;;;;;;;;;5043565;28;20080;-78
2023/05/17 11:46:28;;;;;;;12.52;2.17;;;;;;;;;;5028951;28;20032;-77
2023/05/17 11:48:54;;;;;;;13.57;1.75;;;;;;;;;;5006071;28;20037;-77
2023/05/17 11:51:19;;;;;;;10.60;1.92;;;;;;;;;;5006833;28;20029;-76
2023/05/17 11:53:48;;;;;;;13.98;2.13;;;;;;;;;;5007823;28;20041;-75
2023/05/17 11:56:13;;;;;;;16.63;2.30;;;;;;;;;;5041086;28;20031;-72
2023/05/17 11:58:41;;;;;;;11.13;2.45;;;;;;;;;;5009418;28;20043;-70
2023/05/17 12:01:07;;;;;;;16.92;3.42;;;;;;;;;;5008974;28;20547;-67
2023/05/17 12:03:33;;;;;;;14.48;2.45;;;;;;;;;;5006042;28;20063;-74
2023/05/17 12:06:06;;;;;;;18.20;2.55;;;;;;;;;;5013654;28;20463;-74
2023/05/17 12:08:35;;;;;;;12.55;2.13;;;;;;;;;;5038588;28;20249;-75
2023/05/17 12:11:01;;;;;;;24.45;2.85;;;;;;;;;;5006796;28;20583;-78
2023/05/17 12:13:29;;;;;;;48.55;5.63;;;;;;;;;;5013006;28;20068;-66
2023/05/17 12:15:56;;;;;;;14.52;2.20;;;;;;;;;;5016093;28;20095;-78
2023/05/17 12:18:21;;;;;;;27.15;3.10;;;;;;;;;;5023115;28;20620;-70
2023/05/17 12:20:56;;;;;;;15.60;2.10;;;;;;;;;;5039106;28;20041;-75
2023/05/17 12:23:25;;;;;;;56.63;6.05;;;;;;;;;;5010755;28;20033;-76
2023/05/17 12:25:50;;;;;;;52.83;5.85;;;;;;;;;;5012613;28;20037;-78
2023/05/17 12:28:21;;;;;;;19.13;3.15;;;;;;;;;;5012249;28;21988;-73
2023/05/17 12:30:55;;;;;;;16.10;2.58;;;;;;;;;;5013611;28;20043;-74
2023/05/17 12:33:24;;;;;;;18.02;2.40;;;;;;;;;;5035989;28;20048;-69
2023/05/17 12:35:50;;;;;;;14.20;2.67;;;;;;;;;;5040172;28;20041;-74
2023/05/17 12:38:15;;;;;;;26.55;3.00;;;;;;;;;;5014722;28;20079;-73
2023/05/17 12:40:41;;;;;;;19.60;2.88;;;;;;;;;;5037765;28;20037;-71
2023/05/17 12:43:08;;;;;;;17.23;2.47;;;;;;;;;;5013169;28;20034;-72
2023/05/17 12:45:34;;;;;;;9.80;2.00;;;;;;;;;;5032727;28;20213;-72
2023/05/17 12:47:59;;;;;;;10.75;1.95;;;;;;;;;;5026415;28;20037;-72
2023/05/17 12:50:27;;;;;;;12.48;2.15;;;;;;;;;;5027882;28;20045;-71
2023/05/17 12:52:52;;;;;;;16.05;2.08;;;;;;;;;;5020035;28;20490;-76
2023/05/17 12:55:20;;;;;;;13.73;2.35;;;;;;;;;;5035928;28;20033;-69
2023/05/17 12:57:49;;;;;;;13.98;2.20;;;;;;;;;;5024527;28;20398;-70
2023/05/17 13:00:15;;;;;;;16.95;2.40;;;;;;;;;;5049338;28;20043;-73
2023/05/17 13:02:42;;;;;;;15.18;2.67;;;;;;;;;;5014958;28;20045;-69
2023/05/17 13:05:14;;;;;;;15.07;2.20;;;;;;;;;;5019330;28;20033;-70
2023/05/17 13:07:39;;;;;;;13.65;2.00;;;;;;;;;;5019747;28;20029;-69
2023/05/17 13:10:04;;;;;;;13.95;2.40;;;;;;;;;;5023936;28;20069;-74
2023/05/17 13:12:32;;;;;;;11.32;2.22;;;;;;;;;;5041025;28;20362;-70
2023/05/17 13:14:57;;;;;;;14.05;2.78;;;;;;;;;;5011664;28;20037;-70
2023/05/17 13:17:26;;;;;;;12.93;2.53;;;;;;;;;;5041893;28;20048;-68
2023/05/17 13:19:52;;;;;;;16.45;2.80;;;;;;;;;;5024033;28;20123;-69
2023/05/17 13:22:17;;;;;;;12.85;2.28;;;;;;;;;;5025889;28;20032;-68
2023/05/17 13:24:43;;;;;;;16.83;2.35;;;;;;;;;;5020783;28;20037;-68
2023/05/17 13:27:09;;;;;;;13.55;2.08;;;;;;;;;;5025151;28;20649;-67
2023/05/17 13:29:40;;;;;;;14.13;2.40;;;;;;;;;;5053574;28;20061;-69
2023/05/17 13:32:10;;;;;;;7.63;2.10;;;;;;;;;;5021370;28;20038;-70
2023/05/17 13:34:36;;;;;;;13.50;2.55;;;;;;;;;;5015214;28;20075;-69
2023/05/17 13:37:01;;;;;;;13.65;2.58;;;;;;;;;;5049662;28;20041;-69
2023/05/17 13:39:27;;;;;;;16.27;2.60;;;;;;;;;;5031700;28;20091;-73
2023/05/17 13:41:52;;;;;;;11.75;2.05;;;;;;;;;;5047950;28;20036;-73
2023/05/17 13:44:17;;;;;;;12.75;2.13;;;;;;;;;;5046541;28;20025;-73
2023/05/17 13:46:42;;;;;;;14.20;2.45;;;;;;;;;;5013165;28;20029;-71
2023/05/17 13:49:08;;;;;;;15.35;2.25;;;;;;;;;;5012098;28;20083;-72
2023/05/17 13:51:33;;;;;;;9.63;1.67;;;;;;;;;;5020620;28;20384;-73
2023/05/17 13:54:02;;;;;;;16.73;2.58;;;;;;;;;;5019249;28;21550;-73
2023/05/17 13:56:27;;;;;;;12.65;2.50;;;;;;;;;;5033408;28;20686;-72
2023/05/17 13:58:53;;;;;;;14.88;2.55;;;;;;;;;;5020478;28;20037;-76
2023/05/17 14:01:20;;;;;;;14.45;2.13;;;;;;;;;;5014584;28;20423;-72
2023/05/17 14:03:45;;;;;;;10.55;2.17;;;;;;;;;;5026242;28;20547;-77
2023/05/17 14:06:11;;;;;;;15.65;2.38;;;;;;;;;;5015706;28;20179;-70
2023/05/17 14:08:36;;;;;;;14.07;2.78;;;;;;;;;;5012387;28;20606;-74
2023/05/17 14:11:02;;;;;;;10.95;2.13;;;;;;;;;;5033859;28;20075;-74
2023/05/17 14:13:29;;;;;;;18.55;2.03;;;;;;;;;;5018343;28;20046;-72
2023/05/17 14:15:54;;;;;;;11.30;2.30;;;;;;;;;;5041960;28;20068;-76
2023/05/17 14:18:20;;;;;;;14.52;2.13;;;;;;;;;;5010649;28;20121;-72
2023/05/17 14:20:46;;;;;;;11.10;2.28;;;;;;;;;;5017800;28;20044;-74
2023/05/17 14:23:11;;;;;;;18.75;2.63;;;;;;;;;;5019265;28;20029;-76
2023/05/17 14:25:36;;;;;;;10.32;2.45;;;;;;;;;;5032828;28;20029;-79
2023/05/17 14:28:01;;;;;;;19.45;2.47;;;;;;;;;;5054873;28;20048;-74